Time;durP1;ratioP1;P1;durP2;ratioP2;P2;SDS_P1;SDS_P2;PMS_P1;PMS_P2;Temp;Humidity;BMP_temperature;BMP_pressure;BME280_temperature;BME280_humidity;BME280_pressure;Samples;Min_cycle;Max_cycle;Signal;HPM_P1;HPM_P2
2023/12/17 00:00:36;;;;;;;14.82;13.23;;;;;;;10.02;94.38;102819.25;7391518;19;20356;-76
2023/12/17 00:03:03;;;;;;;14.15;12.65;;;;;;;10.02;94.66;102831.66;7393116;19;20364;-76
2023/12/17 00:05:46;;;;;;;14.80;13.30;;;;;;;10.01;94.67;102822.88;7392807;19;20351;-76
2023/12/17 00:08:13;;;;;;;14.57;12.85;;;;;;;10.01;94.51;102828.19;7393825;19;20347;-76
2023/12/17 00:10:40;;;;;;;13.93;12.43;;;;;;;9.98;94.90;102813.31;7393861;19;20389;-76
2023/12/17 00:13:07;;;;;;;15.40;13.02;;;;;;;9.93;94.95;102807.53;7393402;19;20356;-75
2023/12/17 00:15:34;;;;;;;13.57;12.13;;;;;;;9.96;94.97;102803.81;7390491;19;20373;-77
2023/12/17 00:18:00;;;;;;;13.90;11.90;;;;;;;9.98;95.05;102796.56;7390441;19;20328;-76
2023/12/17 00:20:28;;;;;;;13.95;12.15;;;;;;;9.93;95.21;102799.59;7390408;19;20452;-76
2023/12/17 00:22:54;;;;;;;14.27;12.23;;;;;;;9.92;95.21;102808.50;7391869;19;20690;-75
2023/12/17 00:25:21;;;;;;;12.43;11.13;;;;;;;9.90;95.53;102798.97;7391444;19;20352;-74
2023/12/17 00:27:48;;;;;;;14.05;12.55;;;;;;;9.94;95.39;102806.56;7390781;19;20675;-75
2023/12/17 00:30:15;;;;;;;14.57;12.68;;;;;;;9.98;95.16;102801.88;7391342;19;20889;-75
2023/12/17 00:32:42;;;;;;;13.73;11.70;;;;;;;9.94;95.18;102805.72;7387413;19;20726;-75
2023/12/17 00:35:08;;;;;;;12.40;10.88;;;;;;;9.90;95.53;102798.97;7391649;19;20342;-75
2023/12/17 00:37:35;;;;;;;12.93;11.52;;;;;;;9.92;95.63;102805.00;7391730;19;20718;-75
2023/12/17 00:40:02;;;;;;;15.50;12.05;;;;;;;9.90;95.55;102804.28;7391362;19;20692;-75
2023/12/17 00:42:29;;;;;;;12.32;11.05;;;;;;;9.89;95.63;102807.91;7390850;19;20357;-75
2023/12/17 00:44:56;;;;;;;12.68;11.38;;;;;;;9.89;95.68;102797.31;7390812;19;20348;-74
2023/12/17 00:47:23;;;;;;;13.35;11.35;;;;;;;9.88;95.85;102812.38;7393736;19;20845;-75
2023/12/17 00:49:50;;;;;;;13.27;11.63;;;;;;;9.89;95.92;102805.25;7388963;19;20349;-75
2023/12/17 00:52:16;;;;;;;13.27;11.73;;;;;;;9.92;95.59;102812.97;7390311;19;20707;-75
2023/12/17 00:54:43;;;;;;;13.40;11.60;;;;;;;9.88;95.82;102819.47;7389910;19;20388;-75
2023/12/17 00:57:10;;;;;;;12.38;11.18;;;;;;;9.86;95.74;102813.44;7393461;19;20356;-75
2023/12/17 00:59:37;;;;;;;11.95;10.65;;;;;;;9.87;95.82;102804.53;7389101;19;20417;-75
2023/12/17 01:02:04;;;;;;;13.27;11.10;;;;;;;9.84;95.68;102810.91;7392366;19;20694;-75
2023/12/17 01:04:30;;;;;;;12.05;10.52;;;;;;;9.83;95.83;102800.41;7390820;19;20381;-75
2023/12/17 01:06:57;;;;;;;11.73;10.10;;;;;;;9.84;95.83;102800.31;7390513;19;20356;-75
2023/12/17 01:09:24;;;;;;;13.50;10.82;;;;;;;9.86;95.47;102792.22;7386428;19;20893;-75
2023/12/17 01:11:50;;;;;;;11.60;9.95;;;;;;;9.88;95.56;102800.91;7387484;19;20351;-74
2023/12/17 01:14:17;;;;;;;12.40;10.57;;;;;;;9.86;95.52;102797.53;7390810;19;20349;-75
2023/12/17 01:16:48;;;;;;;11.35;10.15;;;;;;;9.90;95.46;102804.28;7386199;19;21194;-75
2023/12/17 01:19:14;;;;;;;10.80;9.68;;;;;;;9.85;95.17;102801.16;7392028;19;20357;-74
2023/12/17 01:21:41;;;;;;;11.75;9.13;;;;;;;9.82;95.39;102806.66;7390838;19;20356;-75
2023/12/17 01:24:08;;;;;;;11.25;10.05;;;;;;;9.89;95.34;102784.03;7389664;19;20341;-74
2023/12/17 01:26:35;;;;;;;10.60;9.48;;;;;;;9.90;94.94;102772.47;7389270;19;20412;-75
2023/12/17 01:29:02;;;;;;;10.40;8.60;;;;;;;9.85;95.07;102782.59;7389547;19;20444;-75
2023/12/17 01:31:30;;;;;;;10.15;8.98;;;;;;;9.88;95.04;102763.78;7394538;19;20365;-74
2023/12/17 01:33:57;;;;;;;9.80;8.27;;;;;;;9.86;95.03;102792.22;7395967;19;20425;-75
2023/12/17 01:36:24;;;;;;;9.63;8.02;;;;;;;9.88;94.86;102764.66;7395967;19;20369;-76
2023/12/17 01:38:51;;;;;;;10.27;8.00;;;;;;;9.92;94.71;102781.97;7395328;19;20674;-76
2023/12/17 01:41:18;;;;;;;8.97;7.60;;;;;;;9.89;94.66;102799.94;7397207;19;20967;-75
2023/12/17 01:43:44;;;;;;;7.82;6.65;;;;;;;9.90;94.63;102788.38;7398433;19;20352;-75
2023/12/17 01:46:11;;;;;;;8.60;6.88;;;;;;;9.94;94.62;102787.16;7395396;19;20380;-75
2023/12/17 01:48:38;;;;;;;7.47;6.65;;;;;;;9.93;94.46;102780.19;7398509;19;20880;-75
2023/12/17 01:51:05;;;;;;;7.65;6.72;;;;;;;9.96;94.30;102772.00;7396137;19;20392;-75
2023/12/17 01:53:31;;;;;;;7.50;6.70;;;;;;;9.91;94.55;102774.16;7396983;19;20820;-75
2023/12/17 01:55:58;;;;;;;9.60;6.78;;;;;;;9.91;94.75;102774.16;7395589;19;20359;-74
2023/12/17 01:58:27;;;;;;;7.40;6.40;;;;;;;9.92;94.58;102775.84;7396578;19;20365;-75
2023/12/17 02:00:55;;;;;;;6.97;6.10;;;;;;;9.91;94.56;102790.06;7396747;19;20763;-75
2023/12/17 02:03:22;;;;;;;8.00;6.15;;;;;;;9.97;94.50;102786.94;7398429;19;20360;-76
2023/12/17 02:05:49;;;;;;;7.47;5.88;;;;;;;9.98;94.29;102785.97;7394722;19;20373;-75
2023/12/17 02:08:16;;;;;;;6.97;5.65;;;;;;;9.98;94.29;102780.66;7396275;19;20369;-75
2023/12/17 02:10:43;;;;;;;6.93;5.93;;;;;;;10.01;94.04;102777.78;7398144;19;20384;-74
2023/12/17 02:13:10;;;;;;;6.95;5.80;;;;;;;9.97;94.04;102790.44;7390052;19;20360;-75
2023/12/17 02:15:37;;;;;;;7.28;5.50;;;;;;;9.99;93.97;102777.91;7394126;19;20427;-75
2023/12/17 02:18:05;;;;;;;6.20;5.40;;;;;;;10.03;93.59;102785.59;7393080;19;20352;-76
2023/12/17 02:20:34;;;;;;;7.50;5.50;;;;;;;10.01;93.62;102796.34;7394329;19;20368;-75
2023/12/17 02:23:04;;;;;;;7.15;5.50;;;;;;;10.03;93.68;102789.13;7395969;19;20373;-75
2023/12/17 02:25:32;;;;;;;6.00;5.30;;;;;;;10.04;93.62;102796.09;7393924;19;20373;-76
2023/12/17 02:27:59;;;;;;;5.97;5.17;;;;;;;10.05;93.39;102800.47;7395124;19;20867;-75
2023/12/17 02:30:25;;;;;;;6.82;5.68;;;;;;;10.06;93.63;102794.19;7395109;19;20382;-75
2023/12/17 02:32:53;;;;;;;6.30;5.22;;;;;;;10.07;93.49;102797.66;7391806;19;20371;-75
2023/12/17 02:35:21;;;;;;;6.35;5.18;;;;;;;10.11;93.34;102796.47;7393880;19;20371;-76
2023/12/17 02:37:49;;;;;;;6.13;5.07;;;;;;;10.10;93.38;102794.78;7394803;19;20389;-75
2023/12/17 02:40:15;;;;;;;5.93;4.88;;;;;;;10.07;93.24;102795.00;7397139;19;20345;-74
2023/12/17 02:42:42;;;;;;;5.90;4.90;;;;;;;10.12;93.50;102806.13;7394511;19;20357;-74
2023/12/17 02:45:10;;;;;;;6.50;5.03;;;;;;;10.10;93.22;102803.59;7394282;19;20435;-74
2023/12/17 02:47:37;;;;;;;6.38;5.05;;;;;;;10.12;93.27;102788.41;7397120;19;20353;-74
2023/12/17 02:50:05;;;;;;;5.88;5.20;;;;;;;10.15;92.98;102795.25;7397987;19;20889;-74
2023/12/17 02:52:32;;;;;;;6.18;5.32;;;;;;;10.11;92.76;102791.16;7391714;19;20372;-74
2023/12/17 02:54:59;;;;;;;6.53;5.60;;;;;;;10.08;92.76;102810.81;7392689;19;20348;-74
2023/12/17 02:57:26;;;;;;;6.45;5.47;;;;;;;10.13;92.60;102789.22;7394876;19;20352;-74
2023/12/17 02:59:54;;;;;;;5.70;5.07;;;;;;;10.13;92.43;102794.53;7392779;19;20348;-75
2023/12/17 03:02:20;;;;;;;7.05;6.05;;;;;;;10.10;92.33;102800.09;7397791;19;20353;-74
2023/12/17 03:04:47;;;;;;;6.82;5.93;;;;;;;10.08;91.83;102792.25;7395235;19;20373;-74
2023/12/17 03:07:14;;;;;;;6.25;5.50;;;;;;;10.10;91.88;102782.38;7392631;19;20353;-75
2023/12/17 03:09:41;;;;;;;6.70;6.00;;;;;;;10.12;91.76;102788.41;7392563;19;20424;-75
2023/12/17 03:12:07;;;;;;;6.95;6.18;;;;;;;10.15;91.61;102785.50;7397690;19;20341;-75
2023/12/17 03:14:34;;;;;;;7.97;5.97;;;;;;;10.11;91.62;102775.25;7393376;19;20368;-76
2023/12/17 03:17:01;;;;;;;6.75;6.05;;;;;;;10.12;91.37;102775.13;7394827;19;20360;-75
2023/12/17 03:19:28;;;;;;;6.90;6.20;;;;;;;10.11;91.16;102784.03;7392081;19;20886;-75
2023/12/17 03:21:55;;;;;;;7.28;6.50;;;;;;;10.13;91.07;102781.28;7393256;19;20345;-76
2023/12/17 03:24:22;;;;;;;7.57;6.45;;;;;;;10.11;91.12;102799.94;7395468;19;20373;-75
2023/12/17 03:26:49;;;;;;;6.75;6.05;;;;;;;10.09;91.01;102793.09;7393595;19;20373;-75
2023/12/17 03:29:16;;;;;;;6.43;5.72;;;;;;;10.12;91.05;102769.84;7393388;19;20735;-75
2023/12/17 03:31:42;;;;;;;6.60;5.95;;;;;;;10.13;91.00;102768.00;7396575;19;20383;-75
2023/12/17 03:34:10;;;;;;;9.18;6.60;;;;;;;10.12;90.90;102761.88;7393169;19;20356;-75
2023/12/17 03:36:37;;;;;;;8.10;6.63;;;;;;;10.11;90.91;102754.88;7396004;19;20408;-75
2023/12/17 03:39:04;;;;;;;6.63;5.93;;;;;;;10.07;90.82;102747.28;7390726;19;20352;-75
2023/12/17 03:41:31;;;;;;;6.50;5.80;;;;;;;10.09;90.69;102759.44;7394288;19;20432;-75
2023/12/17 03:43:58;;;;;;;7.00;6.30;;;;;;;10.12;90.67;102735.34;7392489;19;20365;-75
2023/12/17 03:46:25;;;;;;;6.90;6.20;;;;;;;10.11;90.53;102736.31;7391978;19;20369;-76
2023/12/17 03:48:52;;;;;;;6.93;6.05;;;;;;;10.10;90.15;102729.31;7391752;19;20356;-76
2023/12/17 03:51:20;;;;;;;6.93;6.18;;;;;;;10.10;90.05;102742.59;7395428;19;20723;-74
2023/12/17 03:53:47;;;;;;;6.30;5.63;;;;;;;10.06;90.12;102762.34;7387920;19;20360;-76
2023/12/17 03:56:15;;;;;;;6.55;5.80;;;;;;;10.06;89.92;102751.75;7393509;19;20849;-75
2023/12/17 03:58:43;;;;;;;7.10;6.10;;;;;;;10.08;89.96;102747.16;7393695;19;20364;-75
2023/12/17 04:01:11;;;;;;;6.88;6.18;;;;;;;10.08;89.71;102741.03;7390677;19;20360;-75
2023/12/17 04:03:38;;;;;;;6.68;5.90;;;;;;;10.09;89.74;102737.41;7393373;19;20365;-75
2023/12/17 04:06:07;;;;;;;6.90;6.20;;;;;;;10.06;89.71;102751.75;7391086;19;20420;-75
2023/12/17 04:08:35;;;;;;;7.65;6.32;;;;;;;10.06;89.67;102741.16;7391120;19;20728;-75
2023/12/17 04:11:02;;;;;;;7.40;6.50;;;;;;;10.05;89.42;102731.50;7390245;19;20360;-76
2023/12/17 04:13:29;;;;;;;7.32;6.38;;;;;;;10.03;89.49;102730.78;7392139;19;20373;-75
2023/12/17 04:15:56;;;;;;;7.38;6.60;;;;;;;10.10;89.65;102726.69;7388763;19;20332;-76
2023/12/17 04:18:22;;;;;;;7.40;6.70;;;;;;;10.08;89.51;102741.03;7392495;19;20365;-75
2023/12/17 04:20:50;;;;;;;7.50;6.25;;;;;;;10.04;89.49;102716.56;7390239;19;20357;-75
2023/12/17 04:23:16;;;;;;;7.17;6.43;;;;;;;10.09;89.59;102709.06;7390826;19;20438;-75
2023/12/17 04:25:43;;;;;;;7.53;6.43;;;;;;;10.06;89.68;102735.84;7387498;19;20356;-76
2023/12/17 04:28:10;;;;;;;7.95;6.95;;;;;;;10.06;89.45;102703.19;7392872;19;20357;-76
2023/12/17 04:30:36;;;;;;;7.07;6.38;;;;;;;10.06;89.57;102714.63;7390309;19;20356;-75
2023/12/17 04:33:03;;;;;;;8.18;7.10;;;;;;;10.03;89.59;102698.97;7391979;19;20364;-75
2023/12/17 04:35:30;;;;;;;7.87;6.43;;;;;;;9.98;89.55;102703.78;7388221;19;20897;-75
2023/12/17 04:37:57;;;;;;;7.10;6.40;;;;;;;10.04;89.60;102710.41;7391750;19;20401;-75
2023/12/17 04:40:24;;;;;;;7.45;6.55;;;;;;;10.07;89.64;102710.16;7388046;19;20897;-75
2023/12/17 04:42:51;;;;;;;7.32;6.55;;;;;;;10.06;89.66;102705.84;7394531;19;20389;-75
2023/12/17 04:45:17;;;;;;;7.78;6.80;;;;;;;10.00;89.35;102720.41;7389940;19;20366;-75
2023/12/17 04:47:44;;;;;;;7.67;6.50;;;;;;;10.00;89.46;102725.72;7390275;19;20436;-75
2023/12/17 04:50:11;;;;;;;6.90;6.10;;;;;;;10.04;89.53;102705.94;7384162;19;20368;-75
2023/12/17 04:52:38;;;;;;;7.30;6.35;;;;;;;10.01;89.33;102700.91;7392014;19;20799;-75
2023/12/17 04:55:06;;;;;;;7.15;6.43;;;;;;;10.07;89.21;102700.38;7391526;19;20385;-75
2023/12/17 04:57:32;;;;;;;7.45;6.63;;;;;;;10.05;89.29;102705.00;7390676;19;20373;-75
2023/12/17 05:00:01;;;;;;;7.35;6.55;;;;;;;10.05;89.41;102715.59;7389363;19;20352;-75
2023/12/17 05:02:28;;;;;;;7.57;6.78;;;;;;;10.05;89.21;102715.59;7392418;19;20653;-75
2023/12/17 05:04:55;;;;;;;7.45;6.40;;;;;;;10.00;89.42;102720.41;7390751;19;20348;-75
2023/12/17 05:07:22;;;;;;;7.57;6.77;;;;;;;10.05;89.50;102710.31;7394195;19;20381;-76
2023/12/17 05:09:48;;;;;;;6.83;6.13;;;;;;;9.98;89.45;102712.56;7398030;19;20348;-75
2023/12/17 05:12:15;;;;;;;7.55;6.75;;;;;;;10.05;89.41;102699.69;7398863;19;20432;-74
2023/12/17 05:14:42;;;;;;;8.10;6.72;;;;;;;9.97;89.61;102723.31;7402221;19;20364;-75
2023/12/17 05:17:10;;;;;;;8.32;6.65;;;;;;;10.00;89.58;102709.81;7397089;19;20545;-75
2023/12/17 05:19:36;;;;;;;7.33;6.60;;;;;;;10.02;89.56;102713.19;7398093;19;20402;-75
2023/12/17 05:22:03;;;;;;;7.82;7.00;;;;;;;9.96;89.83;102722.44;7397409;19;20448;-75
2023/12/17 05:24:30;;;;;;;8.20;6.88;;;;;;;9.99;89.75;102729.34;7395909;19;20360;-75
2023/12/17 05:26:57;;;;;;;7.35;6.60;;;;;;;9.96;89.86;102724.28;7396247;19;20372;-74
2023/12/17 05:29:24;;;;;;;7.90;6.57;;;;;;;10.00;89.71;102720.41;7397185;19;20359;-74
2023/12/17 05:31:51;;;;;;;8.55;6.85;;;;;;;9.96;89.74;102708.34;7395804;19;20340;-76
2023/12/17 05:34:18;;;;;;;7.43;6.65;;;;;;;10.05;89.49;102715.59;7398043;19;20706;-76
2023/12/17 05:36:45;;;;;;;8.45;7.50;;;;;;;10.01;89.54;102703.56;7400448;19;20372;-76
2023/12/17 05:39:12;;;;;;;7.65;6.85;;;;;;;10.03;89.80;102709.59;7398248;19;20356;-76
2023/12/17 05:41:39;;;;;;;8.67;7.40;;;;;;;10.03;89.45;102700.75;7397967;19;20907;-76
2023/12/17 05:44:05;;;;;;;8.38;7.38;;;;;;;10.01;89.59;102727.41;7400290;19;20377;-76
2023/12/17 05:46:32;;;;;;;8.00;6.82;;;;;;;10.03;89.68;102703.41;7399376;19;20368;-76
2023/12/17 05:48:59;;;;;;;8.00;7.20;;;;;;;10.00;89.73;102702.69;7398369;19;20349;-76
2023/12/17 05:51:25;;;;;;;8.10;7.25;;;;;;;10.02;89.81;102701.72;7396851;19;20407;-75
2023/12/17 05:53:52;;;;;;;8.00;6.97;;;;;;;10.02;89.70;102702.56;7399928;19;20373;-76
2023/12/17 05:56:19;;;;;;;7.85;7.05;;;;;;;9.98;89.70;102723.19;7398543;19;20361;-75
2023/12/17 05:58:46;;;;;;;8.65;7.63;;;;;;;10.02;89.62;102704.38;7397696;19;20908;-75
2023/12/17 06:01:14;;;;;;;8.45;7.55;;;;;;;10.01;89.67;102700.91;7398768;19;20348;-76
2023/12/17 06:03:40;;;;;;;8.02;7.15;;;;;;;10.03;89.33;102709.59;7397311;19;20348;-76
2023/12/17 06:06:07;;;;;;;8.30;7.28;;;;;;;9.96;89.24;102698.59;7401179;19;20356;-74
2023/12/17 06:08:35;;;;;;;8.02;7.22;;;;;;;10.04;89.43;102710.41;7395023;19;20349;-75
2023/12/17 06:11:01;;;;;;;8.53;7.67;;;;;;;9.99;89.62;102713.44;7400678;19;20872;-75
2023/12/17 06:13:28;;;;;;;7.90;7.10;;;;;;;10.01;89.55;102730.06;7395001;19;20369;-74
2023/12/17 06:15:55;;;;;;;9.48;7.85;;;;;;;10.06;89.46;102719.94;7398126;19;20360;-75
2023/12/17 06:18:22;;;;;;;7.80;7.00;;;;;;;10.04;89.37;102719.19;7397901;19;20353;-75
2023/12/17 06:20:49;;;;;;;7.97;7.18;;;;;;;10.08;89.24;102718.00;7399813;19;20368;-75
2023/12/17 06:23:16;;;;;;;8.95;7.72;;;;;;;10.07;89.26;102720.75;7400394;19;20414;-76
2023/12/17 06:25:43;;;;;;;8.18;7.38;;;;;;;10.08;89.02;102718.00;7397490;19;20385;-75
2023/12/17 06:28:10;;;;;;;8.75;7.65;;;;;;;10.11;89.21;102722.22;7396126;19;20349;-75
2023/12/17 06:30:37;;;;;;;8.68;7.75;;;;;;;10.13;88.81;102713.16;7396983;19;20415;-74
2023/12/17 06:33:04;;;;;;;8.30;7.40;;;;;;;10.09;88.99;102722.31;7394024;19;20864;-74
2023/12/17 06:35:31;;;;;;;8.15;7.35;;;;;;;10.07;89.00;102724.25;7395379;19;20463;-74
2023/12/17 06:37:58;;;;;;;8.75;7.85;;;;;;;10.07;88.95;102732.22;7395586;19;20448;-75
2023/12/17 06:40:25;;;;;;;8.35;7.43;;;;;;;10.09;89.03;102722.31;7393851;19;20330;-74
2023/12/17 06:42:52;;;;;;;9.25;8.32;;;;;;;10.06;88.97;102733.19;7396085;19;20348;-75
2023/12/17 06:45:20;;;;;;;9.55;8.50;;;;;;;10.10;88.94;102731.97;7393931;19;20389;-76
2023/12/17 06:47:47;;;;;;;10.68;8.70;;;;;;;10.08;88.75;102733.91;7395523;19;20357;-75
2023/12/17 06:50:13;;;;;;;9.63;8.45;;;;;;;10.11;88.72;102728.34;7395780;19;20362;-75
2023/12/17 06:52:40;;;;;;;9.30;8.40;;;;;;;10.12;88.79;102735.34;7394762;19;20340;-75
2023/12/17 06:55:07;;;;;;;10.10;9.10;;;;;;;10.17;88.78;102727.88;7393698;19;20332;-75
2023/12/17 06:57:34;;;;;;;9.98;8.95;;;;;;;10.20;88.74;102732.94;7392813;19;20743;-75
2023/12/17 07:00:01;;;;;;;11.10;9.50;;;;;;;10.24;88.61;102735.34;7395014;19;20429;-75
2023/12/17 07:02:29;;;;;;;10.23;9.23;;;;;;;10.18;88.60;102742.81;7392386;19;20382;-75
2023/12/17 07:04:56;;;;;;;10.13;9.13;;;;;;;10.18;88.60;102744.66;7394900;19;20382;-75
2023/12/17 07:07:22;;;;;;;10.60;9.50;;;;;;;10.16;88.53;102741.28;7394672;19;20694;-76
2023/12/17 07:09:50;;;;;;;10.35;9.25;;;;;;;10.17;88.81;102733.16;7395753;19;20768;-77
2023/12/17 07:12:17;;;;;;;10.00;9.00;;;;;;;10.08;88.83;102728.59;7393592;19;20353;-77
2023/12/17 07:14:44;;;;;;;10.95;9.77;;;;;;;10.12;88.98;102729.22;7391780;19;20420;-78
2023/12/17 07:17:11;;;;;;;11.38;10.18;;;;;;;10.12;88.70;102727.41;7394714;19;20357;-78
2023/12/17 07:19:38;;;;;;;11.35;10.25;;;;;;;10.16;88.97;102731.50;7394968;19;20352;-77
2023/12/17 07:22:05;;;;;;;10.60;9.50;;;;;;;10.15;88.88;102734.25;7395255;19;20396;-77
2023/12/17 07:24:32;;;;;;;11.33;10.10;;;;;;;10.18;88.89;102745.47;7395561;19;20453;-77
2023/12/17 07:26:58;;;;;;;12.23;10.75;;;;;;;10.19;89.07;102744.50;7401584;19;20908;-78
2023/12/17 07:29:26;;;;;;;11.73;10.35;;;;;;;10.20;89.00;102732.94;7400259;19;20360;-77
2023/12/17 07:31:53;;;;;;;11.30;10.13;;;;;;;10.18;89.12;102731.38;7399456;19;20368;-77
2023/12/17 07:34:20;;;;;;;11.70;10.07;;;;;;;10.18;89.01;102739.34;7400266;19;20382;-78
2023/12/17 07:36:48;;;;;;;11.85;10.65;;;;;;;10.16;89.21;102736.81;7401458;19;20381;-77
2023/12/17 07:39:14;;;;;;;12.38;10.93;;;;;;;10.18;89.09;102739.34;7398105;19;20361;-77
2023/12/17 07:41:41;;;;;;;11.93;10.50;;;;;;;10.13;89.09;102738.84;7393863;19;20349;-78
2023/12/17 07:44:08;;;;;;;11.73;10.52;;;;;;;10.15;89.25;102739.56;7396612;19;20869;-77
2023/12/17 07:46:35;;;;;;;11.82;10.60;;;;;;;10.14;89.21;102733.44;7394640;19;20381;-78
2023/12/17 07:49:01;;;;;;;12.27;10.98;;;;;;;10.16;89.47;102741.28;7394290;19;20360;-77
2023/12/17 07:51:28;;;;;;;11.27;10.05;;;;;;;10.17;89.34;102738.47;7396249;19;20359;-78
2023/12/17 07:53:55;;;;;;;11.57;10.43;;;;;;;10.16;89.50;102736.81;7393665;19;20360;-78
2023/12/17 07:56:22;;;;;;;12.70;11.30;;;;;;;10.18;89.37;102721.59;7396215;19;20344;-78
2023/12/17 07:58:50;;;;;;;12.00;10.80;;;;;;;10.17;89.32;102727.88;7397843;19;20381;-77
2023/12/17 08:01:30;;;;;;;11.77;10.57;;;;;;;10.14;89.51;102721.97;7393994;19;20368;-78
2023/12/17 08:03:58;;;;;;;11.57;10.25;;;;;;;10.15;89.58;102719.19;7396172;19;20393;-80
2023/12/17 08:06:25;;;;;;;11.13;9.83;;;;;;;10.13;89.43;102718.47;7392899;19;20369;-80
2023/12/17 08:08:53;;;;;;;11.13;10.00;;;;;;;10.15;89.48;102719.19;7398644;19;20353;-79
2023/12/17 08:11:21;;;;;;;10.47;9.37;;;;;;;10.15;89.62;102727.13;7400769;19;20428;-80
2023/12/17 08:13:48;;;;;;;10.98;9.63;;;;;;;10.16;89.48;102731.50;7399778;19;20371;-80
2023/12/17 08:16:14;;;;;;;10.43;9.18;;;;;;;10.17;89.36;102738.47;7400091;19;20368;-80
2023/12/17 08:18:42;;;;;;;11.30;9.93;;;;;;;10.14;89.46;102737.91;7401421;19;20373;-80
2023/12/17 08:21:09;;;;;;;11.07;9.98;;;;;;;10.18;89.39;102737.53;7399869;19;20377;-80
2023/12/17 08:23:36;;;;;;;10.95;9.85;;;;;;;10.17;89.39;102725.22;7400421;19;20431;-80
2023/12/17 08:26:06;;;;;;;10.18;9.07;;;;;;;10.17;89.34;102743.78;7400487;19;20356;-79
2023/12/17 08:28:33;;;;;;;10.65;9.55;;;;;;;10.11;89.41;102735.47;7402039;19;20476;-80
2023/12/17 08:31:00;;;;;;;10.70;9.48;;;;;;;10.16;89.50;102751.88;7400511;19;20393;-79
2023/12/17 08:33:27;;;;;;;9.77;8.77;;;;;;;10.17;89.39;102743.78;7397491;19;20373;-80
2023/12/17 08:35:54;;;;;;;10.75;9.65;;;;;;;10.20;89.43;102754.16;7401080;19;20364;-80
2023/12/17 08:38:21;;;;;;;12.30;9.98;;;;;;;10.24;89.21;102759.22;7399820;19;20365;-80
2023/12/17 08:40:48;;;;;;;10.68;9.20;;;;;;;10.23;89.31;102760.19;7400881;19;20352;-79
2023/12/17 08:43:15;;;;;;;10.75;9.18;;;;;;;10.23;88.98;102736.31;7406721;19;20356;-80
2023/12/17 08:45:42;;;;;;;10.17;9.17;;;;;;;10.29;88.99;102742.00;7406664;19;20352;-81
2023/12/17 08:48:09;;;;;;;10.35;9.25;;;;;;;10.28;88.95;102744.72;7408923;19;20337;-80
2023/12/17 08:50:36;;;;;;;10.45;9.35;;;;;;;10.28;88.75;102740.28;7404653;19;20352;-80
2023/12/17 08:53:02;;;;;;;11.13;9.77;;;;;;;10.35;88.64;102743.34;7404967;19;20710;-80
2023/12/17 08:55:29;;;;;;;10.30;9.20;;;;;;;10.34;88.73;102745.13;7404238;19;20428;-79
2023/12/17 08:57:56;;;;;;;9.68;8.68;;;;;;;10.34;88.60;102738.97;7407474;19;20380;-80
2023/12/17 09:00:23;;;;;;;10.40;9.40;;;;;;;10.34;88.46;102749.59;7408950;19;20369;-81
2023/12/17 09:02:50;;;;;;;10.82;9.70;;;;;;;10.37;88.57;102754.63;7407614;19;20365;-80
2023/12/17 09:05:17;;;;;;;10.50;9.40;;;;;;;10.36;88.17;102751.16;7405310;19;20379;-80
2023/12/17 09:07:44;;;;;;;10.15;9.10;;;;;;;10.37;88.17;102763.47;7404580;19;20360;-80
2023/12/17 09:10:11;;;;;;;11.15;9.38;;;;;;;10.37;88.32;102750.19;7404385;19;20372;-80
2023/12/17 09:12:38;;;;;;;10.48;9.23;;;;;;;10.40;88.20;102741.13;7407573;19;20353;-79
2023/12/17 09:15:05;;;;;;;11.25;9.60;;;;;;;10.46;88.19;102732.69;7404770;19;20375;-80
2023/12/17 09:17:32;;;;;;;11.43;9.95;;;;;;;10.49;88.08;102729.78;7407163;19;20395;-80
2023/12/17 09:19:59;;;;;;;10.85;9.75;;;;;;;10.56;87.83;102728.31;7407641;19;20364;-80
2023/12/17 09:22:26;;;;;;;11.77;10.27;;;;;;;10.62;87.47;102729.63;7405328;19;20686;-80
2023/12/17 09:24:52;;;;;;;12.25;10.23;;;;;;;10.68;87.51;102726.47;7407894;19;20382;-80
2023/12/17 09:27:19;;;;;;;10.13;9.05;;;;;;;10.71;87.02;102720.06;7406309;19;20358;-80
2023/12/17 09:29:46;;;;;;;10.05;8.75;;;;;;;10.74;86.64;102730.44;7405570;19;20361;-81
2023/12/17 09:32:14;;;;;;;10.52;9.07;;;;;;;10.71;86.32;102715.63;7406224;19;20349;-79
2023/12/17 09:34:40;;;;;;;11.27;9.77;;;;;;;10.72;86.26;102711.97;7404542;19;20384;-80
2023/12/17 09:37:07;;;;;;;11.60;10.40;;;;;;;10.77;86.03;102714.25;7403193;19;20337;-80
2023/12/17 09:39:34;;;;;;;12.90;11.25;;;;;;;10.72;85.91;102714.63;7404288;19;20368;-80
2023/12/17 09:42:01;;;;;;;21.70;10.60;;;;;;;10.81;85.64;102713.03;7406076;19;20368;-80
2023/12/17 09:44:28;;;;;;;11.23;9.98;;;;;;;10.72;85.25;102709.31;7401694;19;20367;-80
2023/12/17 09:46:55;;;;;;;12.90;11.02;;;;;;;10.85;85.23;102717.13;7405194;19;20361;-80
2023/12/17 09:49:22;;;;;;;12.13;10.80;;;;;;;10.81;84.82;102716.50;7403112;19;20353;-80
2023/12/17 09:52:02;;;;;;;12.35;10.70;;;;;;;10.77;84.69;102704.50;7405084;19;20349;-81
2023/12/17 09:54:29;;;;;;;12.60;10.68;;;;;;;10.76;84.53;102701.94;7408076;19;20693;-80
2023/12/17 09:56:57;;;;;;;12.93;11.03;;;;;;;10.72;84.10;102713.78;7404672;19;20347;-79
2023/12/17 09:59:24;;;;;;;12.23;10.75;;;;;;;10.73;84.35;102703.06;7404744;19;20344;-79
2023/12/17 10:01:52;;;;;;;12.32;10.50;;;;;;;10.72;84.11;102705.81;7403988;19;20361;-80
2023/12/17 10:04:26;;;;;;;11.23;9.40;;;;;;;10.70;83.67;102726.34;7405502;19;20796;-79
2023/12/17 10:06:53;;;;;;;11.33;9.73;;;;;;;10.75;83.72;102694.94;7405621;19;20359;-80
2023/12/17 10:09:19;;;;;;;11.20;9.38;;;;;;;10.73;83.34;102687.13;7404904;19;20671;-80
2023/12/17 10:11:47;;;;;;;10.97;9.77;;;;;;;10.78;83.22;102689.41;7406923;19;20446;-80
2023/12/17 10:14:21;;;;;;;11.67;9.23;;;;;;;10.79;83.48;102685.75;7406485;19;20462;-80
2023/12/17 10:16:50;;;;;;;12.00;9.88;;;;;;;10.77;83.14;102683.25;7407140;19;20352;-80
2023/12/17 10:19:18;;;;;;;11.50;9.17;;;;;;;10.78;83.27;102694.72;7407128;19;20373;-80
2023/12/17 10:21:47;;;;;;;10.02;8.88;;;;;;;10.90;83.29;102688.38;7404750;19;20360;-80
2023/12/17 10:24:14;;;;;;;10.73;8.95;;;;;;;10.92;82.84;102681.13;7403724;19;20360;-81
2023/12/17 10:26:46;;;;;;;9.48;8.35;;;;;;;10.92;82.71;102680.25;7405577;19;20411;-81
2023/12/17 10:29:14;;;;;;;8.80;7.63;;;;;;;10.91;82.35;102674.13;7404191;19;20686;-80
2023/12/17 10:31:42;;;;;;;9.35;7.40;;;;;;;10.96;82.35;102669.25;7403856;19;20428;-80
2023/12/17 10:34:20;;;;;;;8.60;7.70;;;;;;;10.95;82.22;102667.59;7397092;19;20993;-80
2023/12/17 10:36:49;;;;;;;8.07;6.45;;;;;;;10.97;81.94;102678.91;7404716;19;20340;-80
2023/12/17 10:39:19;;;;;;;8.68;6.20;;;;;;;10.94;82.01;102657.09;7403395;19;20352;-80
2023/12/17 10:41:50;;;;;;;9.40;6.90;;;;;;;10.94;82.20;102657.91;7404860;19;20365;-80
2023/12/17 10:44:20;;;;;;;8.23;6.13;;;;;;;11.00;82.36;102651.25;7406255;19;20363;-80
2023/12/17 10:46:48;;;;;;;7.65;6.22;;;;;;;11.00;81.90;102657.41;7402990;19;20423;-80
2023/12/17 10:49:18;;;;;;;7.10;5.80;;;;;;;10.90;81.63;102648.56;7394809;19;20352;-80
2023/12/17 10:51:45;;;;;;;5.90;5.28;;;;;;;10.89;81.53;102681.38;7402625;19;20352;-79
2023/12/17 10:54:13;;;;;;;7.03;5.47;;;;;;;10.87;81.70;102663.88;7401917;19;20368;-80
2023/12/17 10:56:54;;;;;;;6.30;5.47;;;;;;;10.88;81.74;102654.94;7401150;19;20372;-80
2023/12/17 10:59:26;;;;;;;5.30;4.53;;;;;;;10.87;81.76;102655.94;7403213;19;20389;-79
2023/12/17 11:02:08;;;;;;;6.63;4.50;;;;;;;10.84;81.57;102662.34;7402739;19;20351;-79
2023/12/17 11:04:35;;;;;;;5.03;4.00;;;;;;;10.79;81.58;102696.38;7401603;19;20373;-79
2023/12/17 11:07:02;;;;;;;4.80;4.10;;;;;;;10.79;81.26;102659.22;7401919;19;20365;-80
2023/12/17 11:09:29;;;;;;;5.60;3.50;;;;;;;10.85;81.35;102661.34;7404578;19;20361;-82
2023/12/17 11:11:56;;;;;;;4.50;3.75;;;;;;;10.84;80.97;102664.13;7404795;19;20344;-80
2023/12/17 11:14:23;;;;;;;3.47;3.10;;;;;;;10.88;80.65;102663.78;7401762;19;20710;-79
2023/12/17 11:16:52;;;;;;;3.37;3.00;;;;;;;10.91;80.75;102663.50;7397717;19;20360;-80
2023/12/17 11:19:18;;;;;;;4.97;3.10;;;;;;;10.95;80.62;102662.28;7399295;19;20361;-80
2023/12/17 11:21:46;;;;;;;4.18;3.30;;;;;;;10.94;80.70;102657.09;7402032;19;20364;-81